Glasgow, Missouri
Current Conditions -  °F | °C
As of 9:35 AM on Monday 22 Dec 2014 (Local Time) from KVER Reporting Station
Overcast Overcast  
Wind Chill: 38°   Ceiling: 800
Heat Index: 42°   Visibility: 10mi
Dew Point: 42°   Wind: 8mph
Humidity: 97%   Direction: 140°SE
Pressure: 29.64"   Gusts: NA
Location:  39.23°N, 92.85°W
Report Text: KVER 221535Z AUTO 14007KT 10SM BKN008 BKN016 OVC028 06/05 A2964 RMK AO2 T00580054
Loading
Personal Weather Stations






























Interactive Weather Map New forecast layout! Learn more

10-Day Weather Forecast

Advertisements
Track Severe Weather on mobile